createdAt,value
2023-05-14T00:01:58.678Z,9.05
2023-05-14T00:04:26.116Z,8.43
2023-05-14T00:06:53.395Z,9.25
2023-05-14T00:11:55.935Z,6.82
2023-05-14T00:14:23.696Z,10.02
2023-05-14T00:16:50.752Z,8.30
2023-05-14T00:19:18.279Z,7.22
2023-05-14T00:21:45.473Z,8.27
2023-05-14T00:24:12.407Z,8.75
2023-05-14T00:26:39.572Z,10.00
2023-05-14T00:29:06.745Z,8.20
2023-05-14T00:31:33.794Z,12.43
2023-05-14T00:34:00.998Z,10.80
2023-05-14T00:36:27.978Z,8.10
2023-05-14T00:38:55.197Z,9.45
2023-05-14T00:41:23.376Z,7.80
2023-05-14T00:43:50.515Z,7.85
2023-05-14T00:46:17.958Z,8.57
2023-05-14T00:48:45.765Z,9.20
2023-05-14T00:51:13.082Z,10.60
2023-05-14T00:53:40.237Z,8.52
2023-05-14T00:56:08.466Z,8.43
2023-05-14T00:58:35.531Z,9.60
2023-05-14T01:01:03.304Z,9.73
2023-05-14T01:03:34.373Z,9.27
2023-05-14T01:06:10.050Z,9.07
2023-05-14T01:08:49.444Z,9.52
2023-05-14T01:11:45.243Z,9.57
2023-05-14T01:14:21.680Z,9.52
2023-05-14T01:16:58.914Z,7.78
2023-05-14T01:19:42.765Z,10.73
2023-05-14T01:22:10.556Z,8.75
2023-05-14T01:24:38.098Z,9.55
2023-05-14T01:27:49.810Z,9.63
2023-05-14T01:30:51.870Z,6.32
2023-05-14T01:33:21.855Z,9.50
2023-05-14T01:35:49.850Z,9.35
2023-05-14T01:38:19.906Z,7.75
2023-05-14T01:40:48.190Z,8.63
2023-05-14T01:43:16.433Z,8.45
2023-05-14T01:45:44.241Z,9.30
2023-05-14T01:48:11.581Z,9.63
2023-05-14T01:50:38.714Z,7.82
2023-05-14T01:53:05.785Z,8.50
2023-05-14T01:55:33.137Z,8.10
2023-05-14T01:58:00.149Z,9.05
2023-05-14T02:00:27.272Z,8.32
2023-05-14T02:02:54.359Z,8.63
2023-05-14T02:05:21.780Z,8.07
2023-05-14T02:07:48.768Z,7.07
2023-05-14T02:10:15.895Z,9.95
2023-05-14T02:12:43.010Z,8.65
2023-05-14T02:15:11.416Z,7.75
2023-05-14T02:17:38.775Z,8.10
2023-05-14T02:22:55.008Z,7.78
2023-05-14T02:25:21.958Z,9.18
2023-05-14T02:27:49.646Z,9.30
2023-05-14T02:30:16.772Z,8.38
2023-05-14T02:32:43.774Z,7.32
2023-05-14T02:35:11.057Z,8.38
2023-05-14T02:37:38.030Z,7.18
2023-05-14T02:40:05.505Z,8.82
2023-05-14T02:42:32.404Z,7.45
2023-05-14T02:44:59.773Z,7.90
2023-05-14T02:47:26.845Z,8.70
2023-05-14T02:49:53.868Z,12.30
2023-05-14T02:52:20.786Z,8.43
2023-05-14T02:54:47.792Z,6.45
2023-05-14T02:57:14.908Z,6.88
2023-05-14T02:59:41.890Z,7.97
2023-05-14T03:02:09.575Z,8.05
2023-05-14T03:04:37.036Z,8.80
2023-05-14T03:07:04.187Z,7.05
2023-05-14T03:09:31.195Z,8.80
2023-05-14T03:11:58.186Z,7.75
2023-05-14T03:14:25.376Z,7.43
2023-05-14T03:16:52.533Z,8.52
2023-05-14T03:19:19.572Z,7.40
2023-05-14T03:21:46.543Z,8.30
2023-05-14T03:24:13.534Z,9.10
2023-05-14T03:26:40.450Z,7.80
2023-05-14T03:29:07.594Z,8.75
2023-05-14T03:31:34.804Z,10.77
2023-05-14T03:34:01.939Z,9.10
2023-05-14T03:36:28.915Z,7.50
2023-05-14T03:38:55.916Z,8.45
2023-05-14T03:41:23.307Z,7.07
2023-05-14T03:43:50.314Z,11.60
2023-05-14T03:46:17.217Z,6.47
2023-05-14T03:48:44.282Z,10.05
2023-05-14T03:51:11.277Z,8.15
2023-05-14T03:53:38.423Z,8.35
2023-05-14T03:56:05.583Z,7.47
2023-05-14T03:58:32.517Z,8.13
2023-05-14T04:01:00.503Z,9.63
2023-05-14T04:03:27.494Z,7.57
2023-05-14T04:05:54.665Z,7.68
2023-05-14T04:08:21.789Z,8.10
2023-05-14T04:10:48.819Z,12.68
2023-05-14T04:13:15.859Z,10.85
2023-05-14T04:15:42.785Z,12.98
2023-05-14T04:18:09.932Z,8.85
2023-05-14T04:20:37.128Z,14.02
2023-05-14T04:23:04.162Z,9.13
2023-05-14T04:25:31.140Z,10.30
2023-05-14T04:27:58.787Z,11.85
2023-05-14T04:30:26.459Z,7.82
2023-05-14T04:32:53.540Z,14.65
2023-05-14T04:35:24.119Z,9.82
2023-05-14T04:37:52.079Z,10.05
2023-05-14T04:40:19.178Z,8.98
2023-05-14T04:42:46.251Z,14.20
2023-05-14T04:45:13.679Z,10.98
2023-05-14T04:47:41.868Z,10.23
2023-05-14T04:53:00.550Z,9.32
2023-05-14T04:55:27.709Z,12.02
2023-05-14T04:57:55.027Z,8.73
2023-05-14T05:03:29.818Z,10.53
2023-05-14T05:05:57.644Z,13.85
2023-05-14T05:08:24.741Z,11.27
2023-05-14T05:10:51.702Z,10.23
2023-05-14T05:13:18.726Z,9.65
2023-05-14T05:15:46.097Z,12.55
2023-05-14T05:18:13.462Z,9.35
2023-05-14T05:20:40.411Z,7.95
2023-05-14T05:23:07.402Z,12.45
2023-05-14T05:25:34.315Z,9.48
2023-05-14T05:41:24.478Z,12.05
2023-05-14T05:43:51.530Z,12.35
2023-05-14T05:46:19.777Z,9.38
2023-05-14T05:48:46.822Z,9.13
2023-05-14T05:51:14.305Z,10.70
2023-05-14T05:53:41.324Z,8.25
2023-05-14T05:56:08.606Z,8.55
2023-05-14T05:58:35.750Z,7.30
2023-05-14T06:01:02.931Z,6.88
2023-05-14T06:03:30.054Z,8.70
2023-05-14T06:05:57.121Z,10.15
2023-05-14T06:08:24.317Z,11.00
2023-05-14T06:10:51.320Z,11.73
2023-05-14T06:13:18.273Z,10.10
2023-05-14T06:15:45.427Z,8.27
2023-05-14T06:18:12.379Z,8.75
2023-05-14T06:20:40.059Z,7.47
2023-05-14T06:23:07.905Z,6.85
2023-05-14T06:25:35.093Z,8.80
2023-05-14T06:28:01.975Z,7.07
2023-05-14T06:30:29.142Z,8.73
2023-05-14T06:32:56.187Z,8.80
2023-05-14T06:35:24.312Z,9.40
2023-05-14T06:37:51.711Z,10.25
2023-05-14T06:40:19.222Z,7.50
2023-05-14T06:42:46.225Z,8.57
2023-05-14T06:45:15.746Z,10.82
2023-05-14T06:47:42.770Z,8.20
2023-05-14T06:50:10.932Z,9.10
2023-05-14T06:52:38.513Z,8.75
2023-05-14T06:55:05.835Z,6.90
2023-05-14T06:57:34.252Z,11.50
2023-05-14T07:00:03.239Z,9.00
2023-05-14T07:02:30.813Z,7.30
2023-05-14T07:04:57.841Z,6.78
2023-05-14T07:07:24.756Z,9.15
2023-05-14T07:09:51.785Z,6.55
2023-05-14T07:12:18.718Z,7.63
2023-05-14T07:14:46.682Z,5.50
2023-05-14T07:17:13.784Z,5.72
2023-05-14T07:19:41.070Z,5.10
2023-05-14T07:22:08.107Z,5.13
2023-05-14T07:24:35.401Z,5.40
2023-05-14T07:27:02.703Z,4.70
2023-05-14T07:29:30.423Z,4.85
2023-05-14T07:31:57.523Z,4.90
2023-05-14T07:34:24.485Z,4.00
2023-05-14T07:36:51.578Z,4.65
2023-05-14T07:39:18.671Z,4.65
2023-05-14T07:41:45.992Z,4.55
2023-05-14T07:44:13.180Z,5.18
2023-05-14T07:46:40.168Z,4.65
2023-05-14T07:49:07.182Z,6.63
2023-05-14T07:51:34.412Z,5.15
2023-05-14T07:54:01.554Z,4.60
2023-05-14T07:56:28.963Z,3.80
2023-05-14T07:58:56.068Z,4.45
2023-05-14T08:01:23.244Z,5.18
2023-05-14T08:03:50.248Z,5.10
2023-05-14T08:06:17.291Z,5.50
2023-05-14T08:08:44.399Z,5.45
2023-05-14T08:11:12.045Z,4.47
2023-05-14T08:13:39.144Z,6.15
2023-05-14T08:16:07.256Z,4.55
2023-05-14T08:18:34.301Z,3.88
2023-05-14T08:21:03.338Z,4.15
2023-05-14T08:23:30.775Z,4.20
2023-05-14T08:25:57.748Z,4.63
2023-05-14T08:28:24.762Z,4.63
2023-05-14T08:30:52.204Z,4.05
2023-05-14T08:33:19.450Z,5.18
2023-05-14T08:35:53.056Z,4.28
2023-05-14T08:38:20.227Z,3.90
2023-05-14T08:40:59.198Z,5.57
2023-05-14T08:43:45.929Z,4.47
2023-05-14T08:46:15.803Z,4.03
2023-05-14T08:48:43.563Z,4.10
2023-05-14T08:51:11.062Z,3.13
2023-05-14T08:53:40.478Z,4.95
2023-05-14T08:56:08.970Z,4.40
2023-05-14T08:58:36.123Z,3.40
2023-05-14T09:01:03.205Z,3.92
2023-05-14T09:03:31.033Z,3.00
2023-05-14T09:06:00.248Z,3.97
2023-05-14T09:08:27.654Z,3.25
2023-05-14T09:10:54.789Z,3.20
2023-05-14T09:13:21.785Z,2.90
2023-05-14T09:15:51.456Z,4.68
2023-05-14T09:18:18.532Z,3.45
2023-05-14T09:20:47.531Z,2.70
2023-05-14T09:23:14.707Z,2.67
2023-05-14T09:25:42.937Z,1.63
2023-05-14T09:28:10.173Z,1.30
2023-05-14T09:30:37.834Z,1.48
2023-05-14T09:33:04.818Z,1.33
2023-05-14T09:38:10.225Z,1.02
2023-05-14T09:40:37.552Z,2.38
2023-05-14T09:43:07.060Z,1.27
2023-05-14T09:45:36.790Z,1.33
2023-05-14T09:48:04.047Z,2.53
2023-05-14T09:50:32.287Z,0.80
2023-05-14T09:53:00.210Z,1.67
2023-05-14T09:55:27.459Z,1.70
2023-05-14T09:57:54.367Z,1.42
2023-05-14T10:00:22.845Z,2.53
2023-05-14T10:02:53.289Z,1.30
2023-05-14T10:05:21.458Z,3.05
2023-05-14T10:07:50.302Z,1.20
2023-05-14T10:10:19.946Z,1.13
2023-05-14T10:12:53.165Z,1.63
2023-05-14T10:15:29.776Z,0.90
2023-05-14T10:18:02.484Z,2.67
2023-05-14T10:20:31.096Z,1.08
2023-05-14T10:22:58.907Z,0.82
2023-05-14T10:25:26.424Z,0.77
2023-05-14T10:27:54.040Z,1.70
2023-05-14T10:30:25.393Z,1.00
2023-05-14T10:33:13.464Z,1.30
2023-05-14T10:36:05.085Z,1.13
2023-05-14T10:38:38.481Z,1.10
2023-05-14T10:41:07.985Z,1.85
2023-05-14T10:43:38.661Z,1.08
2023-05-14T10:46:07.001Z,0.60
2023-05-14T10:48:34.424Z,1.35
2023-05-14T10:51:02.961Z,1.67
2023-05-14T10:53:36.010Z,0.60
2023-05-14T10:56:08.706Z,1.17
2023-05-14T10:58:42.846Z,0.80
2023-05-14T11:01:11.675Z,0.68
2023-05-14T11:03:46.612Z,1.00
2023-05-14T11:06:15.957Z,0.80
2023-05-14T11:08:44.109Z,0.70
2023-05-14T11:11:11.366Z,1.77
2023-05-14T11:13:41.210Z,1.25
2023-05-14T11:16:21.814Z,0.68
2023-05-14T11:19:01.944Z,0.90
2023-05-14T11:21:29.654Z,1.58
2023-05-14T11:23:57.303Z,0.60
2023-05-14T11:26:25.032Z,0.70
2023-05-14T11:28:52.409Z,0.70
2023-05-14T11:31:19.415Z,0.57
2023-05-14T11:33:46.659Z,0.60
2023-05-14T11:36:14.110Z,1.00
2023-05-14T11:49:43.324Z,0.60
2023-05-14T11:52:12.441Z,1.23
2023-05-14T11:54:39.511Z,0.70
2023-05-14T11:57:13.362Z,0.82
2023-05-14T11:59:40.903Z,0.85
2023-05-14T12:02:19.801Z,1.35
2023-05-14T12:04:52.252Z,1.35
2023-05-14T12:16:33.189Z,0.85
2023-05-14T12:19:01.977Z,0.98
2023-05-14T12:21:29.637Z,1.48
2023-05-14T12:24:00.262Z,0.90
2023-05-14T12:26:30.040Z,2.40
2023-05-14T12:29:01.554Z,1.80
2023-05-14T12:31:30.041Z,0.90
2023-05-14T12:36:33.265Z,1.10
2023-05-14T12:39:17.547Z,1.02
2023-05-14T12:41:44.862Z,1.15
2023-05-14T12:44:12.033Z,0.80
2023-05-14T12:49:14.424Z,0.80
2023-05-14T12:51:41.450Z,1.10
2023-05-14T12:54:08.512Z,1.63
2023-05-14T12:56:37.892Z,1.58
2023-05-14T12:59:05.133Z,1.20
2023-05-14T13:01:32.345Z,2.45
2023-05-14T13:03:59.807Z,0.77
2023-05-14T13:06:26.930Z,0.40
2023-05-14T13:08:53.913Z,0.32
2023-05-14T13:11:21.852Z,1.60
2023-05-14T13:13:48.806Z,0.68
2023-05-14T13:16:16.977Z,0.22
2023-05-14T13:18:44.245Z,1.52
2023-05-14T13:21:13.132Z,1.33
2023-05-14T13:23:40.064Z,0.68
2023-05-14T13:26:07.164Z,0.65
2023-05-14T13:28:34.299Z,0.32
2023-05-14T13:31:09.980Z,0.38
2023-05-14T13:33:38.652Z,1.25
2023-05-14T13:36:06.352Z,0.25
2023-05-14T13:38:33.563Z,0.65
2023-05-14T13:41:03.218Z,0.28
2023-05-14T13:43:33.818Z,0.63
2023-05-14T13:51:16.816Z,0.40
2023-05-14T13:53:44.866Z,0.73
2023-05-14T13:56:11.835Z,1.02
2023-05-14T13:58:38.831Z,0.95
2023-05-14T14:01:05.867Z,1.70
2023-05-14T14:03:32.824Z,1.02
2023-05-14T14:05:59.792Z,1.45
2023-05-14T14:08:26.857Z,0.95
2023-05-14T14:10:55.506Z,0.20
2023-05-14T14:13:23.022Z,0.25
2023-05-14T14:15:52.969Z,0.30
2023-05-14T14:18:20.011Z,0.30
2023-05-14T14:20:47.157Z,0.45
2023-05-14T14:23:14.098Z,1.38
2023-05-14T14:25:41.022Z,1.55
2023-05-14T14:28:07.982Z,0.77
2023-05-14T14:30:35.221Z,0.30
2023-05-14T14:33:02.546Z,0.30
2023-05-14T14:35:30.716Z,0.40
2023-05-14T14:37:57.618Z,0.80
2023-05-14T14:40:24.704Z,0.65
2023-05-14T14:42:51.931Z,0.73
2023-05-14T14:45:18.845Z,1.67
2023-05-14T14:47:47.161Z,1.65
2023-05-14T14:50:14.483Z,1.05
2023-05-14T14:52:48.128Z,0.65
2023-05-14T14:55:15.318Z,2.67
2023-05-14T14:57:42.350Z,2.22
2023-05-14T15:00:10.362Z,1.42
2023-05-14T15:02:42.029Z,4.22
2023-05-14T15:05:09.522Z,2.28
2023-05-14T15:07:36.489Z,3.15
2023-05-14T15:10:03.864Z,1.92
2023-05-14T15:12:30.945Z,2.50
2023-05-14T15:14:58.068Z,2.70
2023-05-14T15:17:26.607Z,3.95
2023-05-14T15:19:53.544Z,3.85
2023-05-14T15:22:20.642Z,3.65
2023-05-14T15:24:47.590Z,1.15
2023-05-14T15:27:15.896Z,3.50
2023-05-14T15:29:43.249Z,3.70
2023-05-14T15:32:10.294Z,2.70
2023-05-14T15:34:40.002Z,2.55
2023-05-14T15:37:07.061Z,2.92
2023-05-14T15:39:37.052Z,3.60
2023-05-14T15:42:06.712Z,4.18
2023-05-14T15:44:36.004Z,3.40
2023-05-14T15:47:05.518Z,3.22
2023-05-14T15:49:32.556Z,7.47
2023-05-14T15:52:00.785Z,2.03
2023-05-14T15:54:27.923Z,2.63
2023-05-14T15:56:56.096Z,3.17
2023-05-14T15:59:24.832Z,3.70
2023-05-14T16:01:51.828Z,3.03
2023-05-14T16:04:18.743Z,5.60
2023-05-14T16:06:46.078Z,2.78
2023-05-14T16:09:13.915Z,3.38
2023-05-14T16:11:40.899Z,3.45
2023-05-14T16:14:08.881Z,4.32
2023-05-14T16:16:37.077Z,7.07
2023-05-14T16:19:04.268Z,4.38
2023-05-14T16:21:32.431Z,3.47
2023-05-14T16:23:59.432Z,2.88
2023-05-14T16:26:26.641Z,3.20
2023-05-14T16:28:53.720Z,3.90
2023-05-14T16:31:20.927Z,3.33
2023-05-14T16:33:47.882Z,3.65
2023-05-14T16:36:14.944Z,2.58
2023-05-14T16:38:56.862Z,2.15
2023-05-14T16:41:29.149Z,6.45
2023-05-14T16:43:56.208Z,5.65
2023-05-14T16:46:23.181Z,5.53
2023-05-14T16:48:50.788Z,3.92
2023-05-14T16:51:17.739Z,3.88
2023-05-14T16:53:44.640Z,4.78
2023-05-14T16:56:11.900Z,5.65
2023-05-14T16:58:39.022Z,7.55
2023-05-14T17:01:09.329Z,5.30
2023-05-14T17:03:36.807Z,4.47
2023-05-14T17:06:04.770Z,6.72
2023-05-14T17:08:33.729Z,5.65
2023-05-14T17:11:00.985Z,4.78
2023-05-14T17:13:28.112Z,6.65
2023-05-14T17:15:55.732Z,2.90
2023-05-14T17:18:22.865Z,4.82
2023-05-14T17:20:49.857Z,7.45
2023-05-14T17:23:17.268Z,6.25
2023-05-14T17:25:44.282Z,4.38
2023-05-14T17:28:11.360Z,4.65
2023-05-14T17:30:38.342Z,5.53
2023-05-14T17:33:05.531Z,5.03
2023-05-14T17:35:36.196Z,7.28
2023-05-14T17:38:03.653Z,4.78
2023-05-14T17:40:30.879Z,5.88
2023-05-14T17:42:58.372Z,4.85
2023-05-14T17:45:26.333Z,5.97
2023-05-14T17:47:53.868Z,4.18
2023-05-14T17:50:20.833Z,4.18
2023-05-14T17:52:48.822Z,4.40
2023-05-14T17:55:17.732Z,2.95
2023-05-14T17:57:45.581Z,4.63
2023-05-14T18:00:13.037Z,4.68
2023-05-14T18:02:40.672Z,5.38
2023-05-14T18:05:07.958Z,3.20
2023-05-14T18:07:36.481Z,6.35
2023-05-14T18:10:04.141Z,4.40
2023-05-14T18:12:31.060Z,3.40
2023-05-14T18:14:58.146Z,3.00
2023-05-14T18:17:25.329Z,4.45
2023-05-14T18:19:52.302Z,5.38
2023-05-14T18:22:21.580Z,5.72
2023-05-14T18:24:48.988Z,5.15
2023-05-14T18:27:16.064Z,2.83
2023-05-14T18:29:43.693Z,4.50
2023-05-14T18:32:10.646Z,4.55
2023-05-14T18:34:37.565Z,4.05
2023-05-14T18:37:04.693Z,4.22
2023-05-14T18:39:31.693Z,2.95
2023-05-14T18:41:58.662Z,2.75
2023-05-14T18:44:26.004Z,3.55
2023-05-14T18:46:54.845Z,2.63
2023-05-14T18:49:22.257Z,2.88
2023-05-14T18:51:49.369Z,4.97
2023-05-14T18:54:16.368Z,4.07
2023-05-14T18:56:46.901Z,5.07
2023-05-14T18:59:14.706Z,3.22
2023-05-14T19:01:41.814Z,4.20
2023-05-14T19:04:08.975Z,3.08
2023-05-14T19:06:36.299Z,2.75
2023-05-14T19:09:04.458Z,3.97
2023-05-14T19:11:31.715Z,4.95
2023-05-14T19:13:58.876Z,6.30
2023-05-14T19:16:26.672Z,5.55
2023-05-14T19:18:53.944Z,2.65
2023-05-14T19:21:20.917Z,4.50
2023-05-14T19:23:47.842Z,5.95
2023-05-14T19:26:15.234Z,5.82
2023-05-14T19:28:42.205Z,2.65
2023-05-14T19:31:09.153Z,4.03
2023-05-14T19:33:36.084Z,7.22
2023-05-14T19:36:03.098Z,5.60
2023-05-14T19:38:30.582Z,3.00
2023-05-14T19:40:57.502Z,4.95
2023-05-14T19:43:25.732Z,4.90
2023-05-14T19:45:52.835Z,7.28
2023-05-14T19:48:19.961Z,4.07
2023-05-14T19:50:47.597Z,8.80
2023-05-14T19:53:14.778Z,3.20
2023-05-14T19:55:41.949Z,6.30
2023-05-14T19:58:09.116Z,5.63
2023-05-14T20:00:37.078Z,8.85
2023-05-14T20:03:05.907Z,3.15
2023-05-14T20:05:34.483Z,5.32
2023-05-14T20:08:01.848Z,3.10
2023-05-14T20:10:30.611Z,3.50
2023-05-14T20:12:57.614Z,5.88
2023-05-14T20:15:24.591Z,4.65
2023-05-14T20:17:51.633Z,6.00
2023-05-14T20:20:18.797Z,2.53
2023-05-14T20:22:46.011Z,4.65
2023-05-14T20:25:12.929Z,5.75
2023-05-14T20:27:41.306Z,2.17
2023-05-14T20:30:08.797Z,3.38
2023-05-14T20:32:36.171Z,7.03
2023-05-14T20:35:03.332Z,4.18
2023-05-14T20:37:32.420Z,4.70
2023-05-14T20:40:00.699Z,5.85
2023-05-14T20:42:27.753Z,4.30
2023-05-14T20:44:55.225Z,5.78
2023-05-14T20:47:24.679Z,4.32
2023-05-14T20:49:51.699Z,4.60
2023-05-14T20:52:19.236Z,2.65
2023-05-14T20:54:46.582Z,2.28
2023-05-14T20:57:16.204Z,3.20
2023-05-14T20:59:43.294Z,3.33
2023-05-14T21:02:10.897Z,3.17
2023-05-14T21:04:38.790Z,4.03
2023-05-14T21:07:06.280Z,3.47
2023-05-14T21:09:33.702Z,4.28
2023-05-14T21:12:00.879Z,3.92
2023-05-14T21:14:28.836Z,3.05
2023-05-14T21:16:56.222Z,5.20
2023-05-14T21:19:23.780Z,4.78
2023-05-14T21:21:51.018Z,5.00
2023-05-14T21:24:19.110Z,4.57
2023-05-14T21:26:46.364Z,4.78
2023-05-14T21:29:13.362Z,4.28
2023-05-14T21:31:40.421Z,4.03
2023-05-14T21:34:07.454Z,2.95
2023-05-14T21:36:34.483Z,4.85
2023-05-14T21:39:01.610Z,2.13
2023-05-14T21:41:28.594Z,4.68
2023-05-14T21:43:55.632Z,3.85
2023-05-14T21:46:22.808Z,5.63
2023-05-14T21:48:49.971Z,6.20
2023-05-14T21:51:17.055Z,4.95
2023-05-14T21:53:44.175Z,7.25
2023-05-14T21:56:11.604Z,6.38
2023-05-14T21:58:38.623Z,4.55
2023-05-14T22:01:05.976Z,4.57
2023-05-14T22:03:33.357Z,10.20
2023-05-14T22:06:00.775Z,8.18
2023-05-14T22:08:29.760Z,6.53
2023-05-14T22:10:58.081Z,8.13
2023-05-14T22:13:25.177Z,3.85
2023-05-14T22:16:01.367Z,4.85
2023-05-14T22:18:39.251Z,3.78
2023-05-14T22:21:06.551Z,4.03
2023-05-14T22:23:33.694Z,6.97
2023-05-14T22:26:00.700Z,4.65
2023-05-14T22:28:27.685Z,5.03
2023-05-14T22:30:55.290Z,4.50
2023-05-14T22:33:22.636Z,5.15
2023-05-14T22:35:49.592Z,3.38
2023-05-14T22:38:16.541Z,3.17
2023-05-14T22:40:43.676Z,3.97
2023-05-14T22:43:10.710Z,4.38
2023-05-14T22:45:37.907Z,5.72
2023-05-14T22:48:05.046Z,4.35
2023-05-14T22:50:32.227Z,3.95
2023-05-14T22:52:59.167Z,3.50
2023-05-14T22:55:26.565Z,9.13
2023-05-14T22:57:54.073Z,2.13
2023-05-14T23:00:21.218Z,4.68
2023-05-14T23:02:48.235Z,5.85
2023-05-14T23:05:15.421Z,4.03
2023-05-14T23:07:42.494Z,6.20
2023-05-14T23:10:10.133Z,2.75
2023-05-14T23:12:37.190Z,3.97
2023-05-14T23:15:04.506Z,4.88
2023-05-14T23:17:31.661Z,3.92
2023-05-14T23:19:58.627Z,6.50
2023-05-14T23:22:25.548Z,5.65
2023-05-14T23:24:52.484Z,5.45
2023-05-14T23:27:19.712Z,4.35
2023-05-14T23:29:46.594Z,4.43
2023-05-14T23:32:13.594Z,8.18
2023-05-14T23:34:40.907Z,4.25
2023-05-14T23:37:08.053Z,3.53
2023-05-14T23:39:35.168Z,6.65
2023-05-14T23:42:02.074Z,7.60
2023-05-14T23:44:29.008Z,5.88
2023-05-14T23:46:56.302Z,7.10
2023-05-14T23:49:23.370Z,7.88
2023-05-14T23:51:50.650Z,3.78
2023-05-14T23:54:17.855Z,5.10
2023-05-14T23:56:44.871Z,4.95
2023-05-14T23:59:12.398Z,8.13
